createdAt,value
2023-04-18T00:00:02.858Z,9.5706
2023-04-18T00:01:03.924Z,9.5616
2023-04-18T00:02:05.116Z,9.5539
2023-04-18T00:03:06.695Z,9.5471
2023-04-18T00:04:08.528Z,9.5414
2023-04-18T00:05:09.883Z,9.5387
2023-04-18T00:06:11.000Z,9.5380
2023-04-18T00:07:12.160Z,9.5369
2023-04-18T00:08:13.294Z,9.5373
2023-04-18T00:09:14.560Z,9.5390
2023-04-18T00:10:15.669Z,9.5400
2023-04-18T00:11:16.747Z,9.5444
2023-04-18T00:12:17.831Z,9.5481
2023-04-18T00:13:18.972Z,9.5528
2023-04-18T00:14:20.067Z,9.5590
2023-04-18T00:15:21.178Z,9.5651
2023-04-18T00:16:22.314Z,9.5714
2023-04-18T00:17:23.505Z,9.5760
2023-04-18T00:18:24.622Z,9.5815
2023-04-18T00:19:25.739Z,9.5844
2023-04-18T00:20:26.854Z,9.5804
2023-04-18T00:21:27.951Z,9.5791
2023-04-18T00:22:29.078Z,9.5810
2023-04-18T00:23:30.233Z,9.5894
2023-04-18T00:24:31.319Z,9.5997
2023-04-18T00:25:32.447Z,9.6126
2023-04-18T00:26:33.517Z,9.6232
2023-04-18T00:27:34.695Z,9.6358
2023-04-18T00:28:35.764Z,9.6486
2023-04-18T00:29:36.928Z,9.6606
2023-04-18T00:30:38.092Z,9.6728
2023-04-18T00:31:39.181Z,9.6805
2023-04-18T00:32:40.314Z,9.6830
2023-04-18T00:33:41.387Z,9.6817
2023-04-18T00:34:42.551Z,9.6892
2023-04-18T00:35:43.678Z,9.7025
2023-04-18T00:36:44.763Z,9.7149
2023-04-18T00:37:45.841Z,9.7273
2023-04-18T00:38:46.958Z,9.7401
2023-04-18T00:39:48.094Z,9.7512
2023-04-18T00:40:49.246Z,9.7608
2023-04-18T00:41:50.364Z,9.7723
2023-04-18T00:42:51.431Z,9.7826
2023-04-18T00:43:52.705Z,9.7895
2023-04-18T00:44:53.736Z,9.7976
2023-04-18T00:45:54.861Z,9.8051
2023-04-18T00:46:55.940Z,9.8122
2023-04-18T00:47:57.012Z,9.8184
2023-04-18T00:48:58.095Z,9.8225
2023-04-18T00:49:59.227Z,9.8221
2023-04-18T00:51:00.303Z,9.8275
2023-04-18T00:52:01.393Z,9.8354
2023-04-18T00:53:02.507Z,9.8442
2023-04-18T00:54:03.632Z,9.8522
2023-04-18T00:55:04.714Z,9.8606
2023-04-18T00:56:05.833Z,9.8672
2023-04-18T00:57:06.915Z,9.8759
2023-04-18T00:58:08.013Z,9.8852
2023-04-18T00:59:09.071Z,9.8950
2023-04-18T01:00:10.194Z,9.9030
2023-04-18T01:01:11.341Z,9.9093
2023-04-18T01:02:12.503Z,9.9144
2023-04-18T01:03:13.766Z,9.9204
2023-04-18T01:04:15.137Z,9.9284
2023-04-18T01:05:16.646Z,9.9370
2023-04-18T01:06:17.770Z,9.9456
2023-04-18T01:07:18.891Z,9.9543
2023-04-18T01:08:19.965Z,9.9623
2023-04-18T01:09:21.087Z,9.9682
2023-04-18T01:10:22.223Z,9.9738
2023-04-18T01:11:23.510Z,9.9795
2023-04-18T01:12:24.584Z,9.9844
2023-04-18T01:13:25.724Z,9.9900
2023-04-18T01:14:26.773Z,9.9945
2023-04-18T01:15:27.921Z,9.9985
2023-04-18T01:16:29.032Z,9.9971
2023-04-18T01:17:30.219Z,9.9893
2023-04-18T01:18:31.362Z,9.9860
2023-04-18T01:19:32.717Z,9.9899
2023-04-18T01:20:33.873Z,9.9965
2023-04-18T01:21:35.023Z,10.0037
2023-04-18T01:22:36.166Z,10.0082
2023-04-18T01:23:37.283Z,10.0116
2023-04-18T01:24:38.377Z,10.0144
2023-04-18T01:25:39.626Z,10.0181
2023-04-18T01:26:40.665Z,10.0225
2023-04-18T01:27:41.824Z,10.0266
2023-04-18T01:28:42.925Z,10.0298
2023-04-18T01:29:44.016Z,10.0315
2023-04-18T01:30:45.224Z,10.0345
2023-04-18T01:31:46.431Z,10.0402
2023-04-18T01:32:47.573Z,10.0447
2023-04-18T01:33:48.669Z,10.0502
2023-04-18T01:34:49.765Z,10.0551
2023-04-18T01:35:51.099Z,10.0600
2023-04-18T01:36:52.150Z,10.0650
2023-04-18T01:37:53.215Z,10.0676
2023-04-18T01:38:54.348Z,10.0702
2023-04-18T01:39:55.510Z,10.0721
2023-04-18T01:40:56.603Z,10.0694
2023-04-18T01:41:57.862Z,10.0645
2023-04-18T01:42:58.942Z,10.0625
2023-04-18T01:44:00.016Z,10.0612
2023-04-18T01:45:01.140Z,10.0617
2023-04-18T01:46:02.301Z,10.0603
2023-04-18T01:47:03.440Z,10.0555
2023-04-18T01:48:04.552Z,10.0562
2023-04-18T01:49:05.640Z,10.0600
2023-04-18T01:50:06.743Z,10.0648
2023-04-18T01:51:07.852Z,10.0690
2023-04-18T01:52:09.020Z,10.0719
2023-04-18T01:53:10.465Z,10.0743
2023-04-18T01:54:11.823Z,10.0769
2023-04-18T01:55:13.442Z,10.0815
2023-04-18T01:56:14.535Z,10.0841
2023-04-18T01:57:15.646Z,10.0832
2023-04-18T01:58:16.748Z,10.0835
2023-04-18T01:59:17.955Z,10.0794
2023-04-18T02:00:19.109Z,10.0766
2023-04-18T02:01:20.340Z,10.0767
2023-04-18T02:02:21.768Z,10.0818
2023-04-18T02:03:23.273Z,10.0854
2023-04-18T02:04:24.484Z,10.0882
2023-04-18T02:05:25.601Z,10.0926
2023-04-18T02:06:26.995Z,10.0960
2023-04-18T02:07:28.151Z,10.0991
2023-04-18T02:08:29.272Z,10.1009
2023-04-18T02:09:30.388Z,10.1015
2023-04-18T02:10:31.523Z,10.1048
2023-04-18T02:11:32.673Z,10.1069
2023-04-18T02:12:33.753Z,10.1094
2023-04-18T02:13:35.033Z,10.1088
2023-04-18T02:14:36.385Z,10.1073
2023-04-18T02:15:37.549Z,10.1073
2023-04-18T02:16:38.708Z,10.1070
2023-04-18T02:17:39.799Z,10.1090
2023-04-18T02:18:40.960Z,10.1087
2023-04-18T02:19:42.086Z,10.1092
2023-04-18T02:20:43.212Z,10.1094
2023-04-18T02:21:44.324Z,10.1084
2023-04-18T02:22:45.481Z,10.1086
2023-04-18T02:23:46.600Z,10.1083
2023-04-18T02:24:47.707Z,10.1063
2023-04-18T02:25:48.804Z,10.1041
2023-04-18T02:26:49.927Z,10.1015
2023-04-18T02:27:51.034Z,10.0994
2023-04-18T02:28:52.266Z,10.0956
2023-04-18T02:29:53.442Z,10.0913
2023-04-18T02:30:54.576Z,10.0880
2023-04-18T02:31:55.785Z,10.0788
2023-04-18T02:32:56.977Z,10.0708
2023-04-18T02:33:59.219Z,10.0668
2023-04-18T02:35:00.317Z,10.0633
2023-04-18T02:36:01.426Z,10.0605
2023-04-18T02:37:02.576Z,10.0583
2023-04-18T02:38:03.807Z,10.0574
2023-04-18T02:39:04.936Z,10.0567
2023-04-18T02:40:06.061Z,10.0568
2023-04-18T02:41:07.203Z,10.0569
2023-04-18T02:42:08.335Z,10.0567
2023-04-18T02:43:09.510Z,10.0576
2023-04-18T02:44:10.626Z,10.0582
2023-04-18T02:45:11.856Z,10.0587
2023-04-18T02:46:13.041Z,10.0583
2023-04-18T02:47:14.188Z,10.0569
2023-04-18T02:48:15.424Z,10.0557
2023-04-18T02:49:16.595Z,10.0534
2023-04-18T02:50:17.673Z,10.0518
2023-04-18T02:51:18.908Z,10.0510
2023-04-18T02:52:20.047Z,10.0505
2023-04-18T02:53:21.211Z,10.0502
2023-04-18T02:54:22.307Z,10.0500
2023-04-18T02:55:23.455Z,10.0506
2023-04-18T02:56:24.539Z,10.0471
2023-04-18T02:57:25.643Z,10.0437
2023-04-18T02:58:26.784Z,10.0440
2023-04-18T02:59:27.924Z,10.0418
2023-04-18T03:00:29.047Z,10.0399
2023-04-18T03:01:30.199Z,10.0396
2023-04-18T03:02:31.454Z,10.0365
2023-04-18T03:03:32.742Z,10.0314
2023-04-18T03:04:33.945Z,10.0272
2023-04-18T03:05:35.159Z,10.0271
2023-04-18T03:06:36.288Z,10.0272
2023-04-18T03:07:37.428Z,10.0251
2023-04-18T03:08:38.533Z,10.0234
2023-04-18T03:09:39.674Z,10.0218
2023-04-18T03:10:40.812Z,10.0187
2023-04-18T03:11:42.104Z,10.0152
2023-04-18T03:12:43.249Z,10.0095
2023-04-18T03:13:44.410Z,10.0053
2023-04-18T03:14:45.548Z,10.0063
2023-04-18T03:15:46.708Z,10.0064
2023-04-18T03:16:47.812Z,10.0057
2023-04-18T03:17:49.136Z,10.0020
2023-04-18T03:18:50.280Z,9.9975
2023-04-18T03:19:51.459Z,9.9942
2023-04-18T03:20:52.653Z,9.9934
2023-04-18T03:21:53.798Z,9.9913
2023-04-18T03:22:55.022Z,9.9897
2023-04-18T03:23:56.120Z,9.9864
2023-04-18T03:24:57.230Z,9.9825
2023-04-18T03:25:58.346Z,9.9793
2023-04-18T03:26:59.532Z,9.9770
2023-04-18T03:28:00.706Z,9.9746
2023-04-18T03:29:01.945Z,9.9724
2023-04-18T03:30:03.139Z,9.9679
2023-04-18T03:31:04.389Z,9.9660
2023-04-18T03:32:05.533Z,9.9649
2023-04-18T03:33:06.625Z,9.9658
2023-04-18T03:34:07.800Z,9.9693
2023-04-18T03:35:08.967Z,9.9710
2023-04-18T03:36:10.095Z,9.9716
2023-04-18T03:37:11.204Z,9.9714
2023-04-18T03:38:12.375Z,9.9719
2023-04-18T03:39:13.485Z,9.9730
2023-04-18T03:40:14.640Z,9.9733
2023-04-18T03:41:15.765Z,9.9742
2023-04-18T03:42:16.923Z,9.9746
2023-04-18T03:43:18.076Z,9.9755
2023-04-18T03:44:19.250Z,9.9762
2023-04-18T03:45:20.425Z,9.9753
2023-04-18T03:46:21.616Z,9.9746
2023-04-18T03:47:22.749Z,9.9725
2023-04-18T03:48:23.915Z,9.9713
2023-04-18T03:49:25.036Z,9.9710
2023-04-18T03:50:26.265Z,9.9697
2023-04-18T03:51:27.363Z,9.9697
2023-04-18T03:52:29.830Z,9.9698
2023-04-18T03:53:28.775Z,9.9686
2023-04-18T03:54:29.916Z,9.9660
2023-04-18T03:55:31.065Z,9.9630
2023-04-18T03:56:32.182Z,9.9643
2023-04-18T03:57:33.277Z,9.9640
2023-04-18T03:58:34.403Z,9.9642
2023-04-18T03:59:35.529Z,9.9637
2023-04-18T04:00:36.694Z,9.9644
2023-04-18T04:01:37.909Z,9.9618
2023-04-18T04:02:39.149Z,9.9623
2023-04-18T04:03:40.409Z,9.9649
2023-04-18T04:04:41.913Z,9.9650
2023-04-18T04:05:43.044Z,9.9649
2023-04-18T04:06:44.184Z,9.9627
2023-04-18T04:07:45.378Z,9.9604
2023-04-18T04:08:46.565Z,9.9592
2023-04-18T04:09:47.681Z,9.9580
2023-04-18T04:10:48.843Z,9.9554
2023-04-18T04:11:50.008Z,9.9524
2023-04-18T04:12:51.131Z,9.9493
2023-04-18T04:13:52.282Z,9.9465
2023-04-18T04:14:53.457Z,9.9449
2023-04-18T04:15:54.620Z,9.9435
2023-04-18T04:16:55.781Z,9.9429
2023-04-18T04:17:57.080Z,9.9413
2023-04-18T04:18:58.261Z,9.9375
2023-04-18T04:19:59.372Z,9.9323
2023-04-18T04:21:00.531Z,9.9290
2023-04-18T04:22:01.610Z,9.9267
2023-04-18T04:23:02.796Z,9.9243
2023-04-18T04:24:03.952Z,9.9220
2023-04-18T04:25:05.083Z,9.9211
2023-04-18T04:26:06.202Z,9.9186
2023-04-18T04:27:07.377Z,9.9157
2023-04-18T04:28:08.591Z,9.9122
2023-04-18T04:29:09.716Z,9.9088
2023-04-18T04:30:13.308Z,9.9049
2023-04-18T04:31:12.133Z,9.9000
2023-04-18T04:32:13.324Z,9.8955
2023-04-18T04:33:14.535Z,9.8927
2023-04-18T04:34:15.958Z,9.8897
2023-04-18T04:35:17.311Z,9.8871
2023-04-18T04:36:19.006Z,9.8848
2023-04-18T04:37:20.245Z,9.8830
2023-04-18T04:38:21.440Z,9.8815
2023-04-18T04:39:22.618Z,9.8782
2023-04-18T04:40:23.733Z,9.8762
2023-04-18T04:41:24.910Z,9.8722
2023-04-18T04:42:26.052Z,9.8692
2023-04-18T04:43:27.208Z,9.8665
2023-04-18T04:44:28.364Z,9.8642
2023-04-18T04:45:29.569Z,9.8572
2023-04-18T04:46:30.684Z,9.8504
2023-04-18T04:47:31.947Z,9.8456
2023-04-18T04:48:33.212Z,9.8420
2023-04-18T04:49:34.412Z,9.8368
2023-04-18T04:50:35.583Z,9.8301
2023-04-18T04:51:36.804Z,9.8272
2023-04-18T04:52:37.990Z,9.8227
2023-04-18T04:53:39.376Z,9.8200
2023-04-18T04:54:40.800Z,9.8182
2023-04-18T04:55:42.007Z,9.8185
2023-04-18T04:56:43.169Z,9.8192
2023-04-18T04:57:44.322Z,9.8197
2023-04-18T04:58:45.445Z,9.8200
2023-04-18T04:59:46.571Z,9.8218
2023-04-18T05:00:47.733Z,9.8220
2023-04-18T05:01:48.994Z,9.8199
2023-04-18T05:02:50.520Z,9.8185
2023-04-18T05:03:51.984Z,9.8181
2023-04-18T05:04:53.188Z,9.8189
2023-04-18T05:05:54.361Z,9.8190
2023-04-18T05:06:55.440Z,9.8192
2023-04-18T05:07:56.593Z,9.8195
2023-04-18T05:08:57.819Z,9.8192
2023-04-18T05:09:58.985Z,9.8194
2023-04-18T05:11:00.168Z,9.8193
2023-04-18T05:12:01.421Z,9.8187
2023-04-18T05:13:02.588Z,9.8216
2023-04-18T05:14:03.781Z,9.8247
2023-04-18T05:15:04.934Z,9.8269
2023-04-18T05:16:06.154Z,9.8275
2023-04-18T05:17:07.354Z,9.8275
2023-04-18T05:18:08.632Z,9.8271
2023-04-18T05:19:09.819Z,9.8262
2023-04-18T05:20:10.956Z,9.8245
2023-04-18T05:21:12.182Z,9.8248
2023-04-18T05:22:13.320Z,9.8246
2023-04-18T05:23:14.486Z,9.8263
2023-04-18T05:24:15.955Z,9.8281
2023-04-18T05:25:17.374Z,9.8311
2023-04-18T05:26:18.502Z,9.8333
2023-04-18T05:27:19.637Z,9.8361
2023-04-18T05:28:20.749Z,9.8381
2023-04-18T05:29:21.950Z,9.8413
2023-04-18T05:30:23.050Z,9.8430
2023-04-18T05:31:24.194Z,9.8439
2023-04-18T05:32:25.366Z,9.8419
2023-04-18T05:33:26.466Z,9.8439
2023-04-18T05:34:27.651Z,9.8464
2023-04-18T05:35:28.769Z,9.8506
2023-04-18T05:36:29.876Z,9.8528
2023-04-18T05:37:31.047Z,9.8569
2023-04-18T05:38:32.216Z,9.8629
2023-04-18T05:39:33.373Z,9.8674
2023-04-18T05:40:34.471Z,9.8748
2023-04-18T05:41:35.645Z,9.8805
2023-04-18T05:42:36.762Z,9.8860
2023-04-18T05:43:38.001Z,9.8893
2023-04-18T05:44:39.097Z,9.8927
2023-04-18T05:45:40.277Z,9.8969
2023-04-18T05:46:41.524Z,9.9020
2023-04-18T05:47:42.740Z,9.9060
2023-04-18T05:48:43.913Z,9.9094
2023-04-18T05:49:45.029Z,9.9138
2023-04-18T05:50:46.228Z,9.9169
2023-04-18T05:51:47.367Z,9.9200
2023-04-18T05:52:48.473Z,9.9260
2023-04-18T05:53:49.640Z,9.9319
2023-04-18T05:54:50.766Z,9.9361
2023-04-18T05:55:51.889Z,9.9416
2023-04-18T05:56:53.048Z,9.9488
2023-04-18T05:57:54.219Z,9.9529
2023-04-18T05:58:55.344Z,9.9600
2023-04-18T05:59:56.487Z,9.9660
2023-04-18T06:00:57.620Z,9.9751
2023-04-18T06:01:58.805Z,9.9810
2023-04-18T06:03:00.150Z,9.9899
2023-04-18T06:04:01.814Z,9.9972
2023-04-18T06:05:03.319Z,10.0039
2023-04-18T06:06:04.762Z,10.0105
2023-04-18T06:07:05.909Z,10.0173
2023-04-18T06:08:07.151Z,10.0229
2023-04-18T06:09:08.244Z,10.0315
2023-04-18T06:10:09.386Z,10.0392
2023-04-18T06:11:10.522Z,10.0447
2023-04-18T06:12:11.874Z,10.0487
2023-04-18T06:13:13.175Z,10.0533
2023-04-18T06:14:14.442Z,10.0586
2023-04-18T06:15:15.682Z,10.0617
2023-04-18T06:16:16.957Z,10.0667
2023-04-18T06:17:18.154Z,10.0727
2023-04-18T06:18:19.319Z,10.0821
2023-04-18T06:19:20.546Z,10.0910
2023-04-18T06:20:21.695Z,10.1009
2023-04-18T06:21:22.880Z,10.1120
2023-04-18T06:22:23.995Z,10.1251
2023-04-18T06:23:25.185Z,10.1362
2023-04-18T06:24:26.380Z,10.1479
2023-04-18T06:25:27.536Z,10.1621
2023-04-18T06:26:28.748Z,10.1761
2023-04-18T06:27:31.922Z,10.1857
2023-04-18T06:28:30.627Z,10.1923
2023-04-18T06:29:31.780Z,10.2002
2023-04-18T06:30:32.913Z,10.2095
2023-04-18T06:31:34.054Z,10.2175
2023-04-18T06:32:35.304Z,10.2290
2023-04-18T06:33:36.700Z,10.2402
2023-04-18T06:34:37.870Z,10.2542
2023-04-18T06:35:39.079Z,10.2659
2023-04-18T06:36:40.209Z,10.2793
2023-04-18T06:37:41.348Z,10.2917
2023-04-18T06:38:42.478Z,10.3015
2023-04-18T06:39:43.605Z,10.3092
2023-04-18T06:40:44.806Z,10.3177
2023-04-18T06:41:45.929Z,10.3306
2023-04-18T06:42:47.084Z,10.3436
2023-04-18T06:44:02.109Z,10.3547
2023-04-18T06:44:50.029Z,10.3609
2023-04-18T06:45:51.207Z,10.3696
2023-04-18T06:46:52.377Z,10.3774
2023-04-18T06:47:53.560Z,10.3846
2023-04-18T06:48:54.703Z,10.3884
2023-04-18T06:49:55.861Z,10.3964
2023-04-18T06:50:56.992Z,10.4045
2023-04-18T06:51:58.105Z,10.4125
2023-04-18T06:52:59.352Z,10.4217
2023-04-18T06:54:00.466Z,10.4315
2023-04-18T06:55:01.670Z,10.4411
2023-04-18T06:56:02.916Z,10.4499
2023-04-18T06:57:04.092Z,10.4580
2023-04-18T06:58:05.263Z,10.4660
2023-04-18T06:59:06.501Z,10.4747
2023-04-18T07:00:07.687Z,10.4860
2023-04-18T07:01:08.925Z,10.4966
2023-04-18T07:02:10.379Z,10.5057
2023-04-18T07:03:11.920Z,10.5134
2023-04-18T07:04:13.655Z,10.5234
2023-04-18T07:05:15.395Z,10.5329
2023-04-18T07:06:16.576Z,10.5415
2023-04-18T07:07:17.766Z,10.5508
2023-04-18T07:08:18.938Z,10.5607
2023-04-18T07:09:20.179Z,10.5707
2023-04-18T07:10:21.354Z,10.5827
2023-04-18T07:11:22.521Z,10.5943
2023-04-18T07:12:23.743Z,10.6101
2023-04-18T07:13:24.881Z,10.6265
2023-04-18T07:14:26.118Z,10.6426
2023-04-18T07:15:27.305Z,10.6628
2023-04-18T07:16:28.552Z,10.6818
2023-04-18T07:17:29.766Z,10.7035
2023-04-18T07:18:37.864Z,10.7251
2023-04-18T07:19:32.796Z,10.7502
2023-04-18T07:20:34.032Z,10.7754
2023-04-18T07:21:35.233Z,10.8077
2023-04-18T07:22:36.419Z,10.8415
2023-04-18T07:23:37.596Z,10.8708
2023-04-18T07:24:38.796Z,10.9005
2023-04-18T07:25:40.037Z,10.9315
2023-04-18T07:26:41.206Z,10.9588
2023-04-18T07:27:42.404Z,10.9872
2023-04-18T07:28:43.632Z,11.0164
2023-04-18T07:29:44.782Z,11.0439
2023-04-18T07:30:45.949Z,11.0717
2023-04-18T07:31:47.112Z,11.0995
2023-04-18T07:32:48.331Z,11.1234
2023-04-18T07:33:49.487Z,11.1513
2023-04-18T07:34:50.693Z,11.1760
2023-04-18T07:35:51.847Z,11.2003
2023-04-18T07:36:53.044Z,11.2236
2023-04-18T07:37:54.219Z,11.2477
2023-04-18T07:38:55.381Z,11.2720
2023-04-18T07:39:56.578Z,11.2939
2023-04-18T07:40:57.725Z,11.3146
2023-04-18T07:41:58.942Z,11.3346
2023-04-18T07:43:00.146Z,11.3513
2023-04-18T07:44:01.308Z,11.3642
2023-04-18T07:45:02.450Z,11.3764
2023-04-18T07:46:03.679Z,11.3883
2023-04-18T07:47:04.881Z,11.4007
2023-04-18T07:48:06.060Z,11.4171
2023-04-18T07:49:07.186Z,11.4313
2023-04-18T07:50:08.369Z,11.4501
2023-04-18T07:51:09.569Z,11.4737
2023-04-18T07:52:10.753Z,11.4948
2023-04-18T07:53:11.931Z,11.5161
2023-04-18T07:54:13.139Z,11.5415
2023-04-18T07:55:14.304Z,11.5734
2023-04-18T07:56:15.536Z,11.6050
2023-04-18T07:57:16.626Z,11.6382
2023-04-18T07:58:17.788Z,11.6723
2023-04-18T07:59:18.986Z,11.7079
2023-04-18T08:00:20.118Z,11.7470
2023-04-18T08:01:21.352Z,11.7912
2023-04-18T08:02:22.596Z,11.8380
2023-04-18T08:03:24.035Z,11.8884
2023-04-18T08:04:27.575Z,11.9463
2023-04-18T08:05:27.770Z,12.0025
2023-04-18T08:06:29.024Z,12.0512
2023-04-18T08:07:30.176Z,12.1062
2023-04-18T08:08:31.322Z,12.1582
2023-04-18T08:09:32.483Z,12.2060
2023-04-18T08:10:33.714Z,12.2596
2023-04-18T08:11:35.004Z,12.3144
2023-04-18T08:12:36.157Z,12.3698
2023-04-18T08:13:37.343Z,12.4253
2023-04-18T08:14:38.523Z,12.4808
2023-04-18T08:15:39.811Z,12.5341
2023-04-18T08:16:41.036Z,12.5892
2023-04-18T08:17:42.315Z,12.6396
2023-04-18T08:18:43.505Z,12.6974
2023-04-18T08:19:44.718Z,12.7600
2023-04-18T08:20:45.886Z,12.8059
2023-04-18T08:21:47.028Z,12.8533
2023-04-18T08:23:04.843Z,12.8989
2023-04-18T08:23:49.990Z,12.9387
2023-04-18T08:25:03.860Z,12.9732
2023-04-18T08:25:52.973Z,12.9945
2023-04-18T08:26:54.236Z,12.9991
2023-04-18T08:27:55.426Z,13.0056
2023-04-18T08:28:56.597Z,13.0145
2023-04-18T08:29:57.771Z,13.0194
2023-04-18T08:30:58.939Z,13.0228
2023-04-18T08:32:00.162Z,13.0164
2023-04-18T08:33:01.581Z,12.9984
2023-04-18T08:34:04.528Z,12.9877
2023-04-18T08:35:03.782Z,12.9808
2023-04-18T08:36:04.925Z,12.9777
2023-04-18T08:37:06.073Z,12.9818
2023-04-18T08:38:07.325Z,12.9880
2023-04-18T08:39:08.514Z,12.9895
2023-04-18T08:40:09.723Z,12.9961
2023-04-18T08:41:10.866Z,13.0055
2023-04-18T08:42:12.069Z,13.0133
2023-04-18T08:43:13.258Z,13.0193
2023-04-18T08:44:14.602Z,13.0244
2023-04-18T08:45:16.004Z,13.0390
2023-04-18T08:46:17.242Z,13.0714
2023-04-18T08:47:18.460Z,13.0966
2023-04-18T08:48:19.840Z,13.1133
2023-04-18T08:49:21.036Z,13.1277
2023-04-18T08:50:22.200Z,13.1365
2023-04-18T08:51:23.339Z,13.1487
2023-04-18T08:52:24.547Z,13.1733
2023-04-18T08:53:25.725Z,13.2152
2023-04-18T08:54:27.488Z,13.2600
2023-04-18T08:55:28.813Z,13.2992
2023-04-18T08:56:29.990Z,13.3294
2023-04-18T08:57:31.211Z,13.3505
2023-04-18T08:58:32.447Z,13.3679
2023-04-18T08:59:33.633Z,13.3887
2023-04-18T09:00:34.739Z,13.4069
2023-04-18T09:01:35.942Z,13.4178
2023-04-18T09:02:37.195Z,13.4243
2023-04-18T09:03:38.567Z,13.4289
2023-04-18T09:04:39.858Z,13.4362
2023-04-18T09:05:41.000Z,13.4403
2023-04-18T09:06:42.166Z,13.4397
2023-04-18T09:07:43.321Z,13.4442
2023-04-18T09:08:44.519Z,13.4426
2023-04-18T09:09:45.662Z,13.4494
2023-04-18T09:10:46.922Z,13.4585
2023-04-18T09:11:48.085Z,13.4765
2023-04-18T09:12:49.302Z,13.4928
2023-04-18T09:13:50.542Z,13.5151
2023-04-18T09:14:51.683Z,13.5400
2023-04-18T09:15:52.917Z,13.5608
2023-04-18T09:16:54.068Z,13.5771
2023-04-18T09:17:55.291Z,13.6018
2023-04-18T09:18:56.459Z,13.6268
2023-04-18T09:19:57.590Z,13.6547
2023-04-18T09:20:58.784Z,13.6641
2023-04-18T09:21:59.946Z,13.6653
2023-04-18T09:23:01.109Z,13.6689
2023-04-18T09:24:02.297Z,13.6754
2023-04-18T09:25:03.483Z,13.6877
2023-04-18T09:26:04.663Z,13.7033
2023-04-18T09:27:05.794Z,13.7159
2023-04-18T09:28:06.951Z,13.7331
2023-04-18T09:29:08.150Z,13.7480
2023-04-18T09:30:09.325Z,13.7688
2023-04-18T09:31:10.474Z,13.8030
2023-04-18T09:32:11.608Z,13.8522
2023-04-18T09:33:12.734Z,13.8973
2023-04-18T09:34:14.134Z,13.9404
2023-04-18T09:35:15.670Z,13.9818
2023-04-18T09:36:16.887Z,14.0198
2023-04-18T09:37:17.993Z,14.0532
2023-04-18T09:38:19.187Z,14.0616
2023-04-18T09:39:20.297Z,14.0581
2023-04-18T09:40:21.439Z,14.0502
2023-04-18T09:41:22.575Z,14.0491
2023-04-18T09:42:24.083Z,14.0538
2023-04-18T09:43:25.776Z,14.0564
2023-04-18T09:44:26.937Z,14.0731
2023-04-18T09:45:28.198Z,14.1061
2023-04-18T09:46:29.372Z,14.1430
2023-04-18T09:47:30.540Z,14.1859
2023-04-18T09:48:31.675Z,14.2229
2023-04-18T09:49:32.845Z,14.2356
2023-04-18T09:50:34.004Z,14.2426
2023-04-18T09:51:35.164Z,14.2440
2023-04-18T09:52:36.283Z,14.2496
2023-04-18T09:53:37.417Z,14.2575
2023-04-18T09:54:38.551Z,14.2622
2023-04-18T09:55:39.714Z,14.2672
2023-04-18T09:56:40.841Z,14.2770
2023-04-18T09:57:41.967Z,14.2831
2023-04-18T09:58:43.105Z,14.2859
2023-04-18T09:59:44.328Z,14.2994
2023-04-18T10:00:46.901Z,14.3253
2023-04-18T10:01:45.829Z,14.3642
2023-04-18T10:02:47.033Z,14.4199
2023-04-18T10:03:48.471Z,14.4733
2023-04-18T10:04:50.035Z,14.5404
2023-04-18T10:05:51.312Z,14.6152
2023-04-18T10:06:52.476Z,14.6939
2023-04-18T10:07:53.607Z,14.7675
2023-04-18T10:08:54.735Z,14.8438
2023-04-18T10:09:55.879Z,14.9205
2023-04-18T10:10:56.990Z,14.9974
2023-04-18T10:11:58.113Z,15.0658
2023-04-18T10:12:59.217Z,15.1169
2023-04-18T10:14:00.328Z,15.1541
2023-04-18T10:15:02.150Z,15.1884
2023-04-18T10:16:03.288Z,15.2299
2023-04-18T10:17:04.410Z,15.2808
2023-04-18T10:18:06.446Z,15.3363
2023-04-18T10:19:07.963Z,15.3827
2023-04-18T10:20:09.111Z,15.4204
2023-04-18T10:21:10.229Z,15.4458
2023-04-18T10:22:11.410Z,15.4685
2023-04-18T10:23:12.625Z,15.4973
2023-04-18T10:24:13.874Z,15.5239
2023-04-18T10:25:15.499Z,15.5634
2023-04-18T10:26:16.814Z,15.6228
2023-04-18T10:27:18.030Z,15.6826
2023-04-18T10:28:19.161Z,15.7209
2023-04-18T10:29:20.298Z,15.7532
2023-04-18T10:30:21.534Z,15.7727
2023-04-18T10:31:22.857Z,15.7661
2023-04-18T10:32:24.129Z,15.7297
2023-04-18T10:33:30.894Z,15.6876
2023-04-18T10:34:26.945Z,15.6599
2023-04-18T10:35:28.065Z,15.6200
2023-04-18T10:36:29.275Z,15.5706
2023-04-18T10:37:30.308Z,15.5325
2023-04-18T10:38:31.418Z,15.5062
2023-04-18T10:39:32.556Z,15.4828
2023-04-18T10:40:33.733Z,15.4816
2023-04-18T10:41:34.843Z,15.4942
2023-04-18T10:42:35.964Z,15.5059
2023-04-18T10:43:37.117Z,15.5285
2023-04-18T10:44:38.280Z,15.5579
2023-04-18T10:45:39.411Z,15.5866
2023-04-18T10:46:40.597Z,15.6185
2023-04-18T10:47:41.908Z,15.6385
2023-04-18T10:48:43.133Z,15.6509
2023-04-18T10:49:44.268Z,15.6646
2023-04-18T10:50:45.373Z,15.6953
2023-04-18T10:51:46.471Z,15.7187
2023-04-18T10:52:47.635Z,15.7563
2023-04-18T10:53:48.760Z,15.8038
2023-04-18T10:54:49.920Z,15.8350
2023-04-18T10:55:51.052Z,15.8575
2023-04-18T10:56:52.194Z,15.8572
2023-04-18T10:57:53.302Z,15.8513
2023-04-18T10:58:54.484Z,15.8429
2023-04-18T10:59:55.542Z,15.8418
2023-04-18T11:00:56.805Z,15.8672
2023-04-18T11:01:57.988Z,15.9282
2023-04-18T11:02:59.209Z,16.0128
2023-04-18T11:04:00.517Z,16.1012
2023-04-18T11:05:01.884Z,16.1934
2023-04-18T11:06:03.003Z,16.2649
2023-04-18T11:07:04.734Z,16.3200
2023-04-18T11:08:05.824Z,16.3639
2023-04-18T11:09:06.953Z,16.4061
2023-04-18T11:10:08.007Z,16.4478
2023-04-18T11:11:09.143Z,16.4725
2023-04-18T11:12:10.263Z,16.4867
2023-04-18T11:13:11.379Z,16.5044
2023-04-18T11:14:12.602Z,16.5117
2023-04-18T11:15:14.523Z,16.5038
2023-04-18T11:16:15.926Z,16.4985
2023-04-18T11:17:17.060Z,16.4894
2023-04-18T11:18:18.183Z,16.4863
2023-04-18T11:19:19.326Z,16.5028
2023-04-18T11:20:20.418Z,16.5456
2023-04-18T11:21:21.567Z,16.6000
2023-04-18T11:22:22.687Z,16.6630
2023-04-18T11:23:23.839Z,16.7074
2023-04-18T11:24:24.937Z,16.7354
2023-04-18T11:25:26.078Z,16.7651
2023-04-18T11:26:27.218Z,16.8057
2023-04-18T11:27:28.345Z,16.8395
2023-04-18T11:28:29.460Z,16.8459
2023-04-18T11:29:30.574Z,16.8355
2023-04-18T11:30:31.927Z,16.8076
2023-04-18T11:31:33.060Z,16.7685
2023-04-18T11:32:34.589Z,16.7292
2023-04-18T11:33:35.786Z,16.7119
2023-04-18T11:34:36.852Z,16.7071
2023-04-18T11:35:37.997Z,16.7255
2023-04-18T11:36:39.155Z,16.7433
2023-04-18T11:37:40.326Z,16.7402
2023-04-18T11:38:41.714Z,16.7640
2023-04-18T11:39:42.906Z,16.7988
2023-04-18T11:40:44.072Z,16.8151
2023-04-18T11:41:45.262Z,16.8037
2023-04-18T11:42:46.414Z,16.7810
2023-04-18T11:43:47.578Z,16.8421
2023-04-18T11:44:48.698Z,16.9729
2023-04-18T11:45:49.939Z,17.0669
2023-04-18T11:46:51.146Z,17.1669
2023-04-18T11:47:52.349Z,17.2699
2023-04-18T11:48:53.496Z,17.3674
2023-04-18T11:49:56.907Z,17.5701
2023-04-18T11:50:55.603Z,17.8462
2023-04-18T11:51:56.744Z,18.0542
2023-04-18T11:52:57.884Z,18.2296
2023-04-18T11:53:59.031Z,18.3958
2023-04-18T11:55:00.182Z,18.5657
2023-04-18T11:56:01.266Z,18.7706
2023-04-18T11:57:02.378Z,19.0145
2023-04-18T11:58:03.512Z,19.2771
2023-04-18T11:59:04.631Z,19.4723
2023-04-18T12:00:05.746Z,19.7537
2023-04-18T12:01:06.845Z,19.9174
2023-04-18T12:02:16.034Z,19.9932
2023-04-18T12:03:11.771Z,20.0208
2023-04-18T12:04:12.141Z,20.0221
2023-04-18T12:05:13.918Z,20.0239
2023-04-18T12:06:15.510Z,20.0390
2023-04-18T12:07:16.587Z,20.0631
2023-04-18T12:08:17.730Z,20.1058
2023-04-18T12:09:18.833Z,20.1599
2023-04-18T12:10:19.928Z,20.2224
2023-04-18T12:11:21.031Z,20.3946
2023-04-18T12:12:22.182Z,20.5194
2023-04-18T12:13:23.247Z,20.5672
2023-04-18T12:14:24.392Z,20.5756
2023-04-18T12:15:25.634Z,20.5774
2023-04-18T12:16:26.896Z,20.5731
2023-04-18T12:17:28.019Z,20.5659
2023-04-18T12:18:29.163Z,20.5483
2023-04-18T12:19:30.309Z,20.5143
2023-04-18T12:20:31.450Z,20.4784
2023-04-18T12:21:32.548Z,20.4567
2023-04-18T12:22:33.624Z,20.4573
2023-04-18T12:23:34.748Z,20.4932
2023-04-18T12:24:35.881Z,20.5648
2023-04-18T12:25:36.961Z,20.5982
2023-04-18T12:26:38.106Z,20.5984
2023-04-18T12:27:39.207Z,20.6511